sensor_id;sensor_type;location;lat;lon;timestamp;P1;P2;P0
49914;PMS5003;35806;47.958;13.158;2023-06-10T00:01:51;34;33;
49914;PMS5003;35806;47.958;13.158;2023-06-10T00:04:20;32;29;
49914;PMS5003;35806;47.958;13.158;2023-06-10T00:06:48;33;30;
49914;PMS5003;35806;47.958;13.158;2023-06-10T00:09:16;27;24;
49914;PMS5003;35806;47.958;13.158;2023-06-10T00:11:45;29;25;
49914;PMS5003;35806;47.958;13.158;2023-06-10T00:14:13;35;33;
49914;PMS5003;35806;47.958;13.158;2023-06-10T00:16:41;27;26;
49914;PMS5003;35806;47.958;13.158;2023-06-10T00:19:09;29;29;
49914;PMS5003;35806;47.958;13.158;2023-06-10T00:21:36;38;36;
49914;PMS5003;35806;47.958;13.158;2023-06-10T00:24:04;32;32;
49914;PMS5003;35806;47.958;13.158;2023-06-10T00:26:33;36;32;
49914;PMS5003;35806;47.958;13.158;2023-06-10T00:29:01;29;29;
49914;PMS5003;35806;47.958;13.158;2023-06-10T00:31:37;36;35;
49914;PMS5003;35806;47.958;13.158;2023-06-10T00:34:05;36;33;
49914;PMS5003;35806;47.958;13.158;2023-06-10T00:36:33;32;30;
49914;PMS5003;35806;47.958;13.158;2023-06-10T00:39:01;27;27;
49914;PMS5003;35806;47.958;13.158;2023-06-10T00:41:29;28;28;
49914;PMS5003;35806;47.958;13.158;2023-06-10T00:43:57;25;25;
49914;PMS5003;35806;47.958;13.158;2023-06-10T00:46:25;32;30;
49914;PMS5003;35806;47.958;13.158;2023-06-10T00:48:53;28;25;
49914;PMS5003;35806;47.958;13.158;2023-06-10T00:51:20;28;27;
49914;PMS5003;35806;47.958;13.158;2023-06-10T00:53:49;31;29;
49914;PMS5003;35806;47.958;13.158;2023-06-10T00:56:20;30;28;
49914;PMS5003;35806;47.958;13.158;2023-06-10T00:58:48;27;24;
49914;PMS5003;35806;47.958;13.158;2023-06-10T01:16:39;24;24;
49914;PMS5003;35806;47.958;13.158;2023-06-10T01:19:53;25;22;
49914;PMS5003;35806;47.958;13.158;2023-06-10T01:22:21;24;23;
49914;PMS5003;35806;47.958;13.158;2023-06-10T01:24:50;24;23;
49914;PMS5003;35806;47.958;13.158;2023-06-10T01:27:18;24;23;
49914;PMS5003;35806;47.958;13.158;2023-06-10T01:29:50;23;21;
49914;PMS5003;35806;47.958;13.158;2023-06-10T01:32:21;22;20;
49914;PMS5003;35806;47.958;13.158;2023-06-10T01:34:54;23;22;
49914;PMS5003;35806;47.958;13.158;2023-06-10T01:37:24;24;23;
49914;PMS5003;35806;47.958;13.158;2023-06-10T01:39:53;22;22;
49914;PMS5003;35806;47.958;13.158;2023-06-10T01:42:24;24;22;
49914;PMS5003;35806;47.958;13.158;2023-06-10T01:44:52;25;25;
49914;PMS5003;35806;47.958;13.158;2023-06-10T01:47:19;23;21;
49914;PMS5003;35806;47.958;13.158;2023-06-10T01:49:46;25;23;
49914;PMS5003;35806;47.958;13.158;2023-06-10T01:52:13;26;25;
49914;PMS5003;35806;47.958;13.158;2023-06-10T01:54:41;25;24;
49914;PMS5003;35806;47.958;13.158;2023-06-10T01:57:08;24;22;
49914;PMS5003;35806;47.958;13.158;2023-06-10T01:59:37;23;23;
49914;PMS5003;35806;47.958;13.158;2023-06-10T02:02:04;26;24;
49914;PMS5003;35806;47.958;13.158;2023-06-10T02:04:32;23;23;
49914;PMS5003;35806;47.958;13.158;2023-06-10T02:06:59;27;26;
49914;PMS5003;35806;47.958;13.158;2023-06-10T02:09:26;28;26;
49914;PMS5003;35806;47.958;13.158;2023-06-10T02:11:53;29;29;
49914;PMS5003;35806;47.958;13.158;2023-06-10T02:14:20;24;22;
49914;PMS5003;35806;47.958;13.158;2023-06-10T02:16:53;26;26;
49914;PMS5003;35806;47.958;13.158;2023-06-10T02:19:22;23;22;
49914;PMS5003;35806;47.958;13.158;2023-06-10T02:21:49;22;20;
49914;PMS5003;35806;47.958;13.158;2023-06-10T02:24:16;26;26;
49914;PMS5003;35806;47.958;13.158;2023-06-10T02:26:43;23;22;
49914;PMS5003;35806;47.958;13.158;2023-06-10T02:29:11;20;18;
49914;PMS5003;35806;47.958;13.158;2023-06-10T02:31:38;27;24;
49914;PMS5003;35806;47.958;13.158;2023-06-10T02:34:06;23;23;
49914;PMS5003;35806;47.958;13.158;2023-06-10T02:36:33;20;20;
49914;PMS5003;35806;47.958;13.158;2023-06-10T02:39:00;27;25;
49914;PMS5003;35806;47.958;13.158;2023-06-10T02:41:27;22;21;
49914;PMS5003;35806;47.958;13.158;2023-06-10T02:43:54;22;22;
49914;PMS5003;35806;47.958;13.158;2023-06-10T02:46:20;28;26;
49914;PMS5003;35806;47.958;13.158;2023-06-10T02:48:47;23;23;
49914;PMS5003;35806;47.958;13.158;2023-06-10T02:51:15;23;23;
49914;PMS5003;35806;47.958;13.158;2023-06-10T02:53:42;30;26;
49914;PMS5003;35806;47.958;13.158;2023-06-10T02:56:09;21;19;
49914;PMS5003;35806;47.958;13.158;2023-06-10T02:58:37;30;27;
49914;PMS5003;35806;47.958;13.158;2023-06-10T03:01:04;32;29;
49914;PMS5003;35806;47.958;13.158;2023-06-10T03:03:32;23;23;
49914;PMS5003;35806;47.958;13.158;2023-06-10T03:05:59;27;25;
49914;PMS5003;35806;47.958;13.158;2023-06-10T03:08:45;35;32;
49914;PMS5003;35806;47.958;13.158;2023-06-10T03:11:12;33;32;
49914;PMS5003;35806;47.958;13.158;2023-06-10T03:13:39;37;36;
49914;PMS5003;35806;47.958;13.158;2023-06-10T03:16:07;42;39;
49914;PMS5003;35806;47.958;13.158;2023-06-10T03:18:34;36;33;
49914;PMS5003;35806;47.958;13.158;2023-06-10T03:21:01;38;35;
49914;PMS5003;35806;47.958;13.158;2023-06-10T03:23:29;42;42;
49914;PMS5003;35806;47.958;13.158;2023-06-10T03:25:56;37;37;
49914;PMS5003;35806;47.958;13.158;2023-06-10T03:28:23;44;40;
49914;PMS5003;35806;47.958;13.158;2023-06-10T03:30:56;40;38;
49914;PMS5003;35806;47.958;13.158;2023-06-10T03:33:23;35;32;
49914;PMS5003;35806;47.958;13.158;2023-06-10T03:35:50;35;33;
49914;PMS5003;35806;47.958;13.158;2023-06-10T03:38:18;34;34;
49914;PMS5003;35806;47.958;13.158;2023-06-10T03:40:45;33;32;
49914;PMS5003;35806;47.958;13.158;2023-06-10T03:43:13;42;38;
49914;PMS5003;35806;47.958;13.158;2023-06-10T03:45:40;32;31;
49914;PMS5003;35806;47.958;13.158;2023-06-10T03:48:08;38;34;
49914;PMS5003;35806;47.958;13.158;2023-06-10T03:50:35;35;32;
49914;PMS5003;35806;47.958;13.158;2023-06-10T03:53:03;32;30;
49914;PMS5003;35806;47.958;13.158;2023-06-10T03:55:30;27;27;
49914;PMS5003;35806;47.958;13.158;2023-06-10T03:57:58;36;33;
49914;PMS5003;35806;47.958;13.158;2023-06-10T04:00:27;32;32;
49914;PMS5003;35806;47.958;13.158;2023-06-10T04:02:55;30;29;
49914;PMS5003;35806;47.958;13.158;2023-06-10T04:05:22;29;26;
49914;PMS5003;35806;47.958;13.158;2023-06-10T04:07:49;30;29;
49914;PMS5003;35806;47.958;13.158;2023-06-10T04:10:17;31;28;
49914;PMS5003;35806;47.958;13.158;2023-06-10T04:12:45;28;26;
49914;PMS5003;35806;47.958;13.158;2023-06-10T04:15:12;30;26;
49914;PMS5003;35806;47.958;13.158;2023-06-10T04:17:40;27;22;
49914;PMS5003;35806;47.958;13.158;2023-06-10T04:20:07;27;25;
49914;PMS5003;35806;47.958;13.158;2023-06-10T04:22:35;24;23;
49914;PMS5003;35806;47.958;13.158;2023-06-10T04:25:02;28;27;
49914;PMS5003;35806;47.958;13.158;2023-06-10T04:27:30;30;30;
49914;PMS5003;35806;47.958;13.158;2023-06-10T04:29:58;31;29;
49914;PMS5003;35806;47.958;13.158;2023-06-10T04:32:25;31;31;
49914;PMS5003;35806;47.958;13.158;2023-06-10T04:34:52;39;38;
49914;PMS5003;35806;47.958;13.158;2023-06-10T04:37:20;41;37;
49914;PMS5003;35806;47.958;13.158;2023-06-10T04:39:47;36;35;
49914;PMS5003;35806;47.958;13.158;2023-06-10T04:42:14;41;40;
49914;PMS5003;35806;47.958;13.158;2023-06-10T04:44:42;37;34;
49914;PMS5003;35806;47.958;13.158;2023-06-10T04:47:09;38;34;
49914;PMS5003;35806;47.958;13.158;2023-06-10T04:49:37;37;36;
49914;PMS5003;35806;47.958;13.158;2023-06-10T04:52:05;31;29;
49914;PMS5003;35806;47.958;13.158;2023-06-10T04:54:33;30;30;
49914;PMS5003;35806;47.958;13.158;2023-06-10T04:57:00;28;27;
49914;PMS5003;35806;47.958;13.158;2023-06-10T04:59:28;34;32;
49914;PMS5003;35806;47.958;13.158;2023-06-10T05:01:55;24;24;
49914;PMS5003;35806;47.958;13.158;2023-06-10T05:04:23;27;27;
49914;PMS5003;35806;47.958;13.158;2023-06-10T05:06:50;24;23;
49914;PMS5003;35806;47.958;13.158;2023-06-10T05:09:18;27;24;
49914;PMS5003;35806;47.958;13.158;2023-06-10T05:11:45;25;22;
49914;PMS5003;35806;47.958;13.158;2023-06-10T05:14:12;22;21;
49914;PMS5003;35806;47.958;13.158;2023-06-10T05:16:39;25;23;
49914;PMS5003;35806;47.958;13.158;2023-06-10T05:19:06;25;25;
49914;PMS5003;35806;47.958;13.158;2023-06-10T05:21:39;23;22;
49914;PMS5003;35806;47.958;13.158;2023-06-10T05:24:06;24;23;
49914;PMS5003;35806;47.958;13.158;2023-06-10T05:26:34;22;21;
49914;PMS5003;35806;47.958;13.158;2023-06-10T05:29:02;27;26;
49914;PMS5003;35806;47.958;13.158;2023-06-10T05:31:29;14;14;
49914;PMS5003;35806;47.958;13.158;2023-06-10T05:33:58;22;20;
49914;PMS5003;35806;47.958;13.158;2023-06-10T05:36:25;22;18;
49914;PMS5003;35806;47.958;13.158;2023-06-10T05:38:53;20;18;
49914;PMS5003;35806;47.958;13.158;2023-06-10T05:41:20;20;20;
49914;PMS5003;35806;47.958;13.158;2023-06-10T05:43:47;20;18;
49914;PMS5003;35806;47.958;13.158;2023-06-10T05:46:14;19;17;
49914;PMS5003;35806;47.958;13.158;2023-06-10T05:48:41;17;17;
49914;PMS5003;35806;47.958;13.158;2023-06-10T05:51:08;19;18;
49914;PMS5003;35806;47.958;13.158;2023-06-10T05:53:36;23;20;
49914;PMS5003;35806;47.958;13.158;2023-06-10T05:56:03;20;19;
49914;PMS5003;35806;47.958;13.158;2023-06-10T05:58:31;20;20;
49914;PMS5003;35806;47.958;13.158;2023-06-10T06:00:58;20;20;
49914;PMS5003;35806;47.958;13.158;2023-06-10T06:03:25;24;24;
49914;PMS5003;35806;47.958;13.158;2023-06-10T06:05:53;18;18;
49914;PMS5003;35806;47.958;13.158;2023-06-10T06:08:20;24;23;
49914;PMS5003;35806;47.958;13.158;2023-06-10T06:10:48;18;18;
49914;PMS5003;35806;47.958;13.158;2023-06-10T06:13:16;19;18;
49914;PMS5003;35806;47.958;13.158;2023-06-10T06:15:44;18;18;
49914;PMS5003;35806;47.958;13.158;2023-06-10T06:18:11;18;16;
49914;PMS5003;35806;47.958;13.158;2023-06-10T06:20:38;15;15;
49914;PMS5003;35806;47.958;13.158;2023-06-10T06:23:05;16;14;
49914;PMS5003;35806;47.958;13.158;2023-06-10T06:25:33;19;16;
49914;PMS5003;35806;47.958;13.158;2023-06-10T06:28:00;17;16;
49914;PMS5003;35806;47.958;13.158;2023-06-10T06:30:28;18;15;
49914;PMS5003;35806;47.958;13.158;2023-06-10T06:32:56;14;14;
49914;PMS5003;35806;47.958;13.158;2023-06-10T06:35:24;20;18;
49914;PMS5003;35806;47.958;13.158;2023-06-10T06:37:51;13;12;
49914;PMS5003;35806;47.958;13.158;2023-06-10T06:40:18;16;14;
49914;PMS5003;35806;47.958;13.158;2023-06-10T06:42:46;12;12;
49914;PMS5003;35806;47.958;13.158;2023-06-10T06:45:13;11;10;
49914;PMS5003;35806;47.958;13.158;2023-06-10T06:47:41;14;14;
49914;PMS5003;35806;47.958;13.158;2023-06-10T06:50:09;13;13;
49914;PMS5003;35806;47.958;13.158;2023-06-10T06:52:37;14;14;
49914;PMS5003;35806;47.958;13.158;2023-06-10T06:55:04;14;14;
49914;PMS5003;35806;47.958;13.158;2023-06-10T06:57:32;15;15;
49914;PMS5003;35806;47.958;13.158;2023-06-10T06:59:59;15;15;
49914;PMS5003;35806;47.958;13.158;2023-06-10T07:02:26;15;14;
49914;PMS5003;35806;47.958;13.158;2023-06-10T07:04:54;14;14;
49914;PMS5003;35806;47.958;13.158;2023-06-10T07:07:21;15;13;
49914;PMS5003;35806;47.958;13.158;2023-06-10T07:09:49;17;12;
49914;PMS5003;35806;47.958;13.158;2023-06-10T07:12:16;13;13;
49914;PMS5003;35806;47.958;13.158;2023-06-10T07:14:43;17;16;
49914;PMS5003;35806;47.958;13.158;2023-06-10T07:17:11;19;15;
49914;PMS5003;35806;47.958;13.158;2023-06-10T07:19:38;16;16;
49914;PMS5003;35806;47.958;13.158;2023-06-10T07:22:05;15;14;
49914;PMS5003;35806;47.958;13.158;2023-06-10T07:24:33;16;14;
49914;PMS5003;35806;47.958;13.158;2023-06-10T07:27:00;15;15;
49914;PMS5003;35806;47.958;13.158;2023-06-10T07:29:28;13;13;
49914;PMS5003;35806;47.958;13.158;2023-06-10T07:31:56;14;13;
49914;PMS5003;35806;47.958;13.158;2023-06-10T07:34:23;14;11;
49914;PMS5003;35806;47.958;13.158;2023-06-10T07:36:55;13;12;
49914;PMS5003;35806;47.958;13.158;2023-06-10T07:39:27;10;10;
49914;PMS5003;35806;47.958;13.158;2023-06-10T07:41:55;14;13;
49914;PMS5003;35806;47.958;13.158;2023-06-10T07:44:22;10;10;
49914;PMS5003;35806;47.958;13.158;2023-06-10T07:46:50;8;8;
49914;PMS5003;35806;47.958;13.158;2023-06-10T07:49:17;10;10;
49914;PMS5003;35806;47.958;13.158;2023-06-10T07:51:45;13;12;
49914;PMS5003;35806;47.958;13.158;2023-06-10T07:54:12;9;9;
49914;PMS5003;35806;47.958;13.158;2023-06-10T07:56:39;8;8;
49914;PMS5003;35806;47.958;13.158;2023-06-10T07:59:07;9;9;
49914;PMS5003;35806;47.958;13.158;2023-06-10T08:01:34;14;13;
49914;PMS5003;35806;47.958;13.158;2023-06-10T08:04:03;11;11;
49914;PMS5003;35806;47.958;13.158;2023-06-10T08:06:30;10;10;
49914;PMS5003;35806;47.958;13.158;2023-06-10T08:08:58;12;12;
49914;PMS5003;35806;47.958;13.158;2023-06-10T08:11:25;17;14;
49914;PMS5003;35806;47.958;13.158;2023-06-10T08:13:53;18;14;
49914;PMS5003;35806;47.958;13.158;2023-06-10T08:16:20;13;13;
49914;PMS5003;35806;47.958;13.158;2023-06-10T08:18:48;14;13;
49914;PMS5003;35806;47.958;13.158;2023-06-10T08:21:15;12;12;
49914;PMS5003;35806;47.958;13.158;2023-06-10T08:23:43;9;9;
49914;PMS5003;35806;47.958;13.158;2023-06-10T08:26:10;11;11;
49914;PMS5003;35806;47.958;13.158;2023-06-10T08:28:38;10;10;
49914;PMS5003;35806;47.958;13.158;2023-06-10T08:31:05;12;12;
49914;PMS5003;35806;47.958;13.158;2023-06-10T08:33:32;13;9;
49914;PMS5003;35806;47.958;13.158;2023-06-10T08:36:00;12;11;
49914;PMS5003;35806;47.958;13.158;2023-06-10T08:38:28;11;11;
49914;PMS5003;35806;47.958;13.158;2023-06-10T08:40:56;10;10;
49914;PMS5003;35806;47.958;13.158;2023-06-10T08:43:28;11;10;
49914;PMS5003;35806;47.958;13.158;2023-06-10T08:46:00;12;12;
49914;PMS5003;35806;47.958;13.158;2023-06-10T08:48:29;10;10;
49914;PMS5003;35806;47.958;13.158;2023-06-10T08:50:57;11;11;
49914;PMS5003;35806;47.958;13.158;2023-06-10T08:53:24;13;13;
49914;PMS5003;35806;47.958;13.158;2023-06-10T08:55:53;11;11;
49914;PMS5003;35806;47.958;13.158;2023-06-10T08:58:25;12;12;
49914;PMS5003;35806;47.958;13.158;2023-06-10T09:00:53;13;13;
49914;PMS5003;35806;47.958;13.158;2023-06-10T09:03:21;13;13;
49914;PMS5003;35806;47.958;13.158;2023-06-10T09:05:49;11;11;
49914;PMS5003;35806;47.958;13.158;2023-06-10T09:08:17;15;11;
49914;PMS5003;35806;47.958;13.158;2023-06-10T09:10:44;11;10;
49914;PMS5003;35806;47.958;13.158;2023-06-10T09:13:12;13;11;
49914;PMS5003;35806;47.958;13.158;2023-06-10T09:15:39;14;12;
49914;PMS5003;35806;47.958;13.158;2023-06-10T09:18:07;13;12;
49914;PMS5003;35806;47.958;13.158;2023-06-10T09:20:34;14;13;
49914;PMS5003;35806;47.958;13.158;2023-06-10T09:23:01;12;11;
49914;PMS5003;35806;47.958;13.158;2023-06-10T09:25:36;9;9;
49914;PMS5003;35806;47.958;13.158;2023-06-10T09:28:08;12;10;
49914;PMS5003;35806;47.958;13.158;2023-06-10T09:30:40;11;11;
49914;PMS5003;35806;47.958;13.158;2023-06-10T09:33:10;8;8;
49914;PMS5003;35806;47.958;13.158;2023-06-10T09:35:45;9;9;
49914;PMS5003;35806;47.958;13.158;2023-06-10T09:38:13;10;10;
49914;PMS5003;35806;47.958;13.158;2023-06-10T09:40:49;11;11;
49914;PMS5003;35806;47.958;13.158;2023-06-10T09:43:18;13;12;
49914;PMS5003;35806;47.958;13.158;2023-06-10T09:45:47;15;14;
49914;PMS5003;35806;47.958;13.158;2023-06-10T09:48:15;10;10;
49914;PMS5003;35806;47.958;13.158;2023-06-10T09:50:44;8;8;
49914;PMS5003;35806;47.958;13.158;2023-06-10T09:53:12;13;11;
49914;PMS5003;35806;47.958;13.158;2023-06-10T09:55:45;12;11;
49914;PMS5003;35806;47.958;13.158;2023-06-10T09:58:13;13;11;
49914;PMS5003;35806;47.958;13.158;2023-06-10T10:00:41;12;11;
49914;PMS5003;35806;47.958;13.158;2023-06-10T10:03:08;11;9;
49914;PMS5003;35806;47.958;13.158;2023-06-10T10:05:36;11;11;
49914;PMS5003;35806;47.958;13.158;2023-06-10T10:08:03;11;9;
49914;PMS5003;35806;47.958;13.158;2023-06-10T10:10:31;10;10;
49914;PMS5003;35806;47.958;13.158;2023-06-10T10:12:58;11;9;
49914;PMS5003;35806;47.958;13.158;2023-06-10T10:15:31;9;9;
49914;PMS5003;35806;47.958;13.158;2023-06-10T10:18:02;9;8;
49914;PMS5003;35806;47.958;13.158;2023-06-10T10:20:34;7;7;
49914;PMS5003;35806;47.958;13.158;2023-06-10T10:23:03;11;10;
49914;PMS5003;35806;47.958;13.158;2023-06-10T10:25:35;8;7;
49914;PMS5003;35806;47.958;13.158;2023-06-10T10:28:06;9;8;
49914;PMS5003;35806;47.958;13.158;2023-06-10T10:30:37;10;9;
49914;PMS5003;35806;47.958;13.158;2023-06-10T10:33:09;10;10;
49914;PMS5003;35806;47.958;13.158;2023-06-10T10:35:39;12;11;
49914;PMS5003;35806;47.958;13.158;2023-06-10T10:38:07;15;14;
49914;PMS5003;35806;47.958;13.158;2023-06-10T10:40:35;11;11;
49914;PMS5003;35806;47.958;13.158;2023-06-10T10:43:03;12;12;
49914;PMS5003;35806;47.958;13.158;2023-06-10T10:45:33;15;12;
49914;PMS5003;35806;47.958;13.158;2023-06-10T10:48:04;15;15;
49914;PMS5003;35806;47.958;13.158;2023-06-10T10:50:35;14;13;
49914;PMS5003;35806;47.958;13.158;2023-06-10T10:53:03;11;11;
49914;PMS5003;35806;47.958;13.158;2023-06-10T10:55:32;9;9;
49914;PMS5003;35806;47.958;13.158;2023-06-10T10:58:02;13;12;
49914;PMS5003;35806;47.958;13.158;2023-06-10T11:00:31;9;8;
49914;PMS5003;35806;47.958;13.158;2023-06-10T11:03:00;11;11;
49914;PMS5003;35806;47.958;13.158;2023-06-10T11:05:35;13;13;
49914;PMS5003;35806;47.958;13.158;2023-06-10T11:08:03;9;9;
49914;PMS5003;35806;47.958;13.158;2023-06-10T11:10:31;8;8;
49914;PMS5003;35806;47.958;13.158;2023-06-10T11:12:59;9;9;
49914;PMS5003;35806;47.958;13.158;2023-06-10T11:15:31;13;13;
49914;PMS5003;35806;47.958;13.158;2023-06-10T11:18:07;13;12;
49914;PMS5003;35806;47.958;13.158;2023-06-10T11:20:44;13;11;
49914;PMS5003;35806;47.958;13.158;2023-06-10T11:23:49;8;8;
49914;PMS5003;35806;47.958;13.158;2023-06-10T11:26:20;10;10;
49914;PMS5003;35806;47.958;13.158;2023-06-10T11:29:03;9;9;
49914;PMS5003;35806;47.958;13.158;2023-06-10T11:31:33;12;12;
49914;PMS5003;35806;47.958;13.158;2023-06-10T11:34:05;13;11;
49914;PMS5003;35806;47.958;13.158;2023-06-10T11:36:34;13;13;
49914;PMS5003;35806;47.958;13.158;2023-06-10T11:39:04;10;10;
49914;PMS5003;35806;47.958;13.158;2023-06-10T11:41:33;10;9;
49914;PMS5003;35806;47.958;13.158;2023-06-10T11:44:02;8;8;
49914;PMS5003;35806;47.958;13.158;2023-06-10T11:46:30;11;11;
49914;PMS5003;35806;47.958;13.158;2023-06-10T11:48:58;8;8;
49914;PMS5003;35806;47.958;13.158;2023-06-10T11:51:26;7;7;
49914;PMS5003;35806;47.958;13.158;2023-06-10T11:53:55;7;7;
49914;PMS5003;35806;47.958;13.158;2023-06-10T11:56:23;8;8;
49914;PMS5003;35806;47.958;13.158;2023-06-10T11:58:53;11;11;
49914;PMS5003;35806;47.958;13.158;2023-06-10T12:01:22;9;9;
49914;PMS5003;35806;47.958;13.158;2023-06-10T12:03:58;11;8;
49914;PMS5003;35806;47.958;13.158;2023-06-10T12:06:37;9;9;
49914;PMS5003;35806;47.958;13.158;2023-06-10T12:09:05;13;12;
49914;PMS5003;35806;47.958;13.158;2023-06-10T12:11:33;12;12;
49914;PMS5003;35806;47.958;13.158;2023-06-10T12:14:05;9;9;
49914;PMS5003;35806;47.958;13.158;2023-06-10T12:16:32;9;8;
49914;PMS5003;35806;47.958;13.158;2023-06-10T12:19:01;8;8;
49914;PMS5003;35806;47.958;13.158;2023-06-10T12:21:28;8;8;
49914;PMS5003;35806;47.958;13.158;2023-06-10T12:24:00;8;8;
49914;PMS5003;35806;47.958;13.158;2023-06-10T12:26:37;10;10;
49914;PMS5003;35806;47.958;13.158;2023-06-10T12:29:22;10;8;
49914;PMS5003;35806;47.958;13.158;2023-06-10T12:31:52;8;8;
49914;PMS5003;35806;47.958;13.158;2023-06-10T12:34:39;10;10;
49914;PMS5003;35806;47.958;13.158;2023-06-10T12:37:10;11;11;
49914;PMS5003;35806;47.958;13.158;2023-06-10T12:39:38;8;8;
49914;PMS5003;35806;47.958;13.158;2023-06-10T12:42:08;10;10;
49914;PMS5003;35806;47.958;13.158;2023-06-10T12:44:38;12;11;
49914;PMS5003;35806;47.958;13.158;2023-06-10T12:47:08;14;14;
49914;PMS5003;35806;47.958;13.158;2023-06-10T12:49:35;15;13;
49914;PMS5003;35806;47.958;13.158;2023-06-10T12:52:03;16;16;
49914;PMS5003;35806;47.958;13.158;2023-06-10T12:54:30;20;20;
49914;PMS5003;35806;47.958;13.158;2023-06-10T12:57:04;15;13;
49914;PMS5003;35806;47.958;13.158;2023-06-10T12:59:31;16;16;
49914;PMS5003;35806;47.958;13.158;2023-06-10T13:01:59;18;16;
49914;PMS5003;35806;47.958;13.158;2023-06-10T13:04:26;13;13;
49914;PMS5003;35806;47.958;13.158;2023-06-10T13:06:53;14;14;
49914;PMS5003;35806;47.958;13.158;2023-06-10T13:09:21;13;12;
49914;PMS5003;35806;47.958;13.158;2023-06-10T13:11:48;13;12;
49914;PMS5003;35806;47.958;13.158;2023-06-10T13:14:15;10;9;
49914;PMS5003;35806;47.958;13.158;2023-06-10T13:16:43;10;10;
49914;PMS5003;35806;47.958;13.158;2023-06-10T13:19:11;12;12;
49914;PMS5003;35806;47.958;13.158;2023-06-10T13:21:38;10;10;
49914;PMS5003;35806;47.958;13.158;2023-06-10T13:24:06;9;9;
49914;PMS5003;35806;47.958;13.158;2023-06-10T13:26:34;8;8;
49914;PMS5003;35806;47.958;13.158;2023-06-10T13:29:02;10;8;
49914;PMS5003;35806;47.958;13.158;2023-06-10T13:31:29;9;8;
49914;PMS5003;35806;47.958;13.158;2023-06-10T13:33:57;8;8;
49914;PMS5003;35806;47.958;13.158;2023-06-10T13:36:24;12;11;
49914;PMS5003;35806;47.958;13.158;2023-06-10T13:38:52;8;8;
49914;PMS5003;35806;47.958;13.158;2023-06-10T13:41:20;15;12;
49914;PMS5003;35806;47.958;13.158;2023-06-10T13:43:47;12;12;
49914;PMS5003;35806;47.958;13.158;2023-06-10T13:46:20;15;13;
49914;PMS5003;35806;47.958;13.158;2023-06-10T13:48:47;10;10;
49914;PMS5003;35806;47.958;13.158;2023-06-10T13:51:15;12;12;
49914;PMS5003;35806;47.958;13.158;2023-06-10T13:53:43;11;10;
49914;PMS5003;35806;47.958;13.158;2023-06-10T13:56:10;11;11;
49914;PMS5003;35806;47.958;13.158;2023-06-10T13:58:37;11;11;
49914;PMS5003;35806;47.958;13.158;2023-06-10T14:01:04;16;16;
49914;PMS5003;35806;47.958;13.158;2023-06-10T14:03:32;14;13;
49914;PMS5003;35806;47.958;13.158;2023-06-10T14:05:59;15;14;
49914;PMS5003;35806;47.958;13.158;2023-06-10T14:08:27;10;10;
49914;PMS5003;35806;47.958;13.158;2023-06-10T14:10:54;12;11;
49914;PMS5003;35806;47.958;13.158;2023-06-10T14:13:22;14;13;
49914;PMS5003;35806;47.958;13.158;2023-06-10T14:15:51;13;12;
49914;PMS5003;35806;47.958;13.158;2023-06-10T14:18:18;10;10;
49914;PMS5003;35806;47.958;13.158;2023-06-10T14:20:46;11;10;
49914;PMS5003;35806;47.958;13.158;2023-06-10T14:23:13;10;8;
49914;PMS5003;35806;47.958;13.158;2023-06-10T14:25:41;10;10;
49914;PMS5003;35806;47.958;13.158;2023-06-10T14:28:08;9;9;
49914;PMS5003;35806;47.958;13.158;2023-06-10T14:30:35;12;10;
49914;PMS5003;35806;47.958;13.158;2023-06-10T14:33:03;6;6;
49914;PMS5003;35806;47.958;13.158;2023-06-10T14:35:30;10;9;
49914;PMS5003;35806;47.958;13.158;2023-06-10T14:37:58;8;8;
49914;PMS5003;35806;47.958;13.158;2023-06-10T14:40:25;9;9;
49914;PMS5003;35806;47.958;13.158;2023-06-10T14:42:53;7;7;
49914;PMS5003;35806;47.958;13.158;2023-06-10T14:45:20;7;7;
49914;PMS5003;35806;47.958;13.158;2023-06-10T14:47:48;5;5;
49914;PMS5003;35806;47.958;13.158;2023-06-10T14:50:15;7;5;
49914;PMS5003;35806;47.958;13.158;2023-06-10T14:52:43;10;7;
49914;PMS5003;35806;47.958;13.158;2023-06-10T14:55:10;8;7;
49914;PMS5003;35806;47.958;13.158;2023-06-10T14:57:37;10;10;
49914;PMS5003;35806;47.958;13.158;2023-06-10T15:00:06;9;6;
49914;PMS5003;35806;47.958;13.158;2023-06-10T15:02:33;7;7;
49914;PMS5003;35806;47.958;13.158;2023-06-10T15:05:01;8;7;
49914;PMS5003;35806;47.958;13.158;2023-06-10T15:07:29;8;8;
49914;PMS5003;35806;47.958;13.158;2023-06-10T15:09:57;8;8;
49914;PMS5003;35806;47.958;13.158;2023-06-10T15:12:24;8;8;
49914;PMS5003;35806;47.958;13.158;2023-06-10T15:14:52;9;9;
49914;PMS5003;35806;47.958;13.158;2023-06-10T15:17:19;11;10;
49914;PMS5003;35806;47.958;13.158;2023-06-10T15:19:47;7;7;
49914;PMS5003;35806;47.958;13.158;2023-06-10T15:22:14;6;6;
49914;PMS5003;35806;47.958;13.158;2023-06-10T15:24:42;9;8;
49914;PMS5003;35806;47.958;13.158;2023-06-10T15:27:09;6;6;
49914;PMS5003;35806;47.958;13.158;2023-06-10T15:29:36;9;9;
49914;PMS5003;35806;47.958;13.158;2023-06-10T15:32:04;9;8;
49914;PMS5003;35806;47.958;13.158;2023-06-10T15:34:32;9;9;
49914;PMS5003;35806;47.958;13.158;2023-06-10T15:36:59;11;9;
49914;PMS5003;35806;47.958;13.158;2023-06-10T15:39:27;9;9;
49914;PMS5003;35806;47.958;13.158;2023-06-10T15:41:54;11;11;
49914;PMS5003;35806;47.958;13.158;2023-06-10T15:44:22;8;7;
49914;PMS5003;35806;47.958;13.158;2023-06-10T15:46:50;10;10;
49914;PMS5003;35806;47.958;13.158;2023-06-10T15:49:18;8;8;
49914;PMS5003;35806;47.958;13.158;2023-06-10T15:51:46;8;8;
49914;PMS5003;35806;47.958;13.158;2023-06-10T15:54:13;9;9;
49914;PMS5003;35806;47.958;13.158;2023-06-10T15:56:41;10;10;
49914;PMS5003;35806;47.958;13.158;2023-06-10T15:59:08;13;12;
49914;PMS5003;35806;47.958;13.158;2023-06-10T16:01:35;12;11;
49914;PMS5003;35806;47.958;13.158;2023-06-10T16:04:03;13;13;
49914;PMS5003;35806;47.958;13.158;2023-06-10T16:06:30;16;14;
49914;PMS5003;35806;47.958;13.158;2023-06-10T16:08:58;13;13;
49914;PMS5003;35806;47.958;13.158;2023-06-10T16:11:26;14;13;
49914;PMS5003;35806;47.958;13.158;2023-06-10T16:13:59;17;16;
49914;PMS5003;35806;47.958;13.158;2023-06-10T16:16:26;13;12;
49914;PMS5003;35806;47.958;13.158;2023-06-10T16:18:54;17;16;
49914;PMS5003;35806;47.958;13.158;2023-06-10T16:21:21;16;16;
49914;PMS5003;35806;47.958;13.158;2023-06-10T16:23:49;16;15;
49914;PMS5003;35806;47.958;13.158;2023-06-10T16:26:16;15;14;
49914;PMS5003;35806;47.958;13.158;2023-06-10T16:28:45;16;16;
49914;PMS5003;35806;47.958;13.158;2023-06-10T16:31:13;16;16;